Tuesday, January 16, 2018, 6:52 AM EST
Back to Local

KMSS, Massena International -richards Fld

Location: Massena, NY, United States Lat: 44.933
Local Time: 6:52 AM EST (11:52 GMT) Lon: -74.85
Time Zone: US/Eastern Elev: 213 ft

Show me the last for .
Show Decoded

2018-01-16 06:39 METAR KMSS 161139Z AUTO 06005KT 9SM BKN026 OVC090 M15/M17 A3044 RMK AO2 SNE36
                 P0000 T11501172 =
2018-01-16 05:53 METAR KMSS 161053Z AUTO 06007KT 4SM -SN BR OVC039 M15/M17 A3045 RMK AO2 SLP321
                 P0000 T11501167 =
2018-01-16 05:45 METAR KMSS 161045Z AUTO 05008KT 3SM -SN BR OVC037 M15/M17 A3044 RMK AO2 P0000
                 T11501167 =
2018-01-16 05:36 METAR KMSS 161036Z AUTO 06007KT 2 1/2SM -SN BR OVC035 M15/M17 A3044 RMK AO2
                 P0000 T11501167 =
2018-01-16 04:53 METAR KMSS 160953Z AUTO 07008KT 4SM -SN BR OVC038 M15/M17 A3044 RMK AO2 SLP321
                 P0000 T11501167 =
2018-01-16 04:35 METAR KMSS 160935Z AUTO 05007KT 3SM -SN BR OVC030 M15/M17 A3044 RMK AO2 P0000
                 T11501167 =
2018-01-16 04:26 METAR KMSS 160926Z AUTO 06009KT 2 1/2SM -SN BR OVC026 M15/M17 A3045 RMK AO2
                 P0000 T11501167 =
2018-01-16 04:11 METAR KMSS 160911Z AUTO 07008KT 3SM -SN BR OVC023 M15/M17 A3044 RMK AO2 P0000
                 T11501167 =
2018-01-16 03:53 METAR KMSS 160853Z AUTO 07007KT 1 3/4SM -SN BR OVC019 M15/M17 A3045 RMK AO2
                 SLP323 P0000 60000 T11501172 58009 =
2018-01-16 03:36 METAR KMSS 160836Z AUTO 07009KT 1 1/2SM -SN BR OVC021 M15/M17 A3045 RMK AO2
                 P0000 T11501172 =
2018-01-16 03:24 METAR KMSS 160824Z AUTO 07008KT 2 1/2SM -SN BR OVC023 M15/M17 A3045 RMK AO2
                 P0000 T11501172 =
2018-01-16 02:53 METAR KMSS 160753Z AUTO 05007KT 1 1/2SM -SN BR OVC019 M15/M17 A3046 RMK AO2
                 SLP327 P0000 T11501167 =
2018-01-16 02:40 METAR KMSS 160740Z AUTO 06010KT 1 3/4SM -SN BR OVC019 M15/M17 A3046 RMK AO2
                 P0000 T11501172 =
2018-01-16 02:27 METAR KMSS 160727Z AUTO 07008KT 2SM -SN BR OVC019 M15/M17 A3046 RMK AO2 P0000
                 T11501172 =
2018-01-16 02:04 METAR KMSS 160704Z AUTO 06010KT 1 1/2SM -SN BR OVC017 M15/M17 A3047 RMK AO2
                 P0000 T11501172 =
2018-01-16 01:53 METAR KMSS 160653Z AUTO 06011KT 2 1/2SM -SN BR OVC025 M15/M17 A3047 RMK AO2
                 SLP330 P0000 T11501172 =
2018-01-16 01:51 METAR KMSS 160651Z AUTO 06010KT 2 1/2SM -SN BR OVC025 M15/M17 A3047 RMK AO2
                 P0000 =
2018-01-16 01:31 METAR KMSS 160631Z AUTO 07010KT 4SM -SN BR OVC033 M15/M17 A3047 RMK AO2 P0000
                 T11501172 =
2018-01-16 01:24 METAR KMSS 160624Z AUTO 06012KT 3SM -SN BR OVC028 M15/M17 A3048 RMK AO2 P0000
                 T11501172 =
2018-01-16 01:14 METAR KMSS 160614Z AUTO 06011KT 1 1/2SM -SN BR OVC017 M15/M17 A3047 RMK AO2
                 P0000 T11501172 =
2018-01-16 00:58 METAR KMSS 160558Z AUTO 06012KT 1SM -SN BR VV014 M15/M17 A3047 RMK AO2 P0000
                 T11501172 =
2018-01-16 00:53 METAR KMSS 160553Z AUTO 06013KT 1 1/2SM -SN BR OVC020 M15/M17 A3048 RMK AO2
                 SNB37 SLP331 P0000 60000 T11501172 11150 21172 58023 =
2018-01-16 00:46 METAR KMSS 160546Z AUTO 06011KT 2 1/2SM -SN BR OVC026 M15/M17 A3048 RMK AO2
                 SNB37 P0000 T11501172 =
2018-01-15 23:53 METAR KMSS 160453Z AUTO 06011KT 10SM OVC041 M16/M18 A3050 RMK AO2 SLP340
                 T11561178 411561289 =
2018-01-15 22:53 METAR KMSS 160353Z AUTO 06009KT 10SM OVC039 M16/M18 A3053 RMK AO2 SLP349
                 T11611178 =
2018-01-15 21:53 METAR KMSS 160253Z AUTO 05012KT 10SM OVC042 M17/M18 A3054 RMK AO2 SLP355
                 T11671183 56026 =
2018-01-15 20:53 METAR KMSS 160153Z AUTO 06012KT 10SM OVC044 M17/M19 A3056 RMK AO2 SLP362
                 T11671194 =
2018-01-15 19:53 METAR KMSS 160053Z AUTO 06010KT 10SM FEW110 M17/M20 A3059 RMK AO2 SLP373
                 T11721200 =
2018-01-15 18:53 METAR KMSS 152353Z AUTO 06010KT 10SM FEW120 M17/M21 A3062 RMK AO2 SLP382
                 T11721206 11167 21178 58013 =
2018-01-15 17:53 METAR KMSS 152253Z AUTO 07009KT 10SM CLR M18/M21 A3064 RMK AO2 SLP390 T11781206
                 =
2018-01-15 16:53 METAR KMSS 152153Z AUTO 06010KT 10SM CLR M18/M21 A3066 RMK AO2 SLP395 T11781206
                 =
2018-01-15 15:53 METAR KMSS 152053Z AUTO 06012KT 10SM CLR M17/M21 A3066 RMK AO2 SLP396 T11721206
                 56016 =
2018-01-15 14:53 METAR KMSS 151953Z AUTO 06011KT 10SM CLR M17/M21 A3067 RMK AO2 SLP400 T11671206
                 =
2018-01-15 13:53 METAR KMSS 151853Z AUTO 06010KT 10SM CLR M17/M21 A3069 RMK AO2 SLP408 T11721206
                 =
2018-01-15 12:53 METAR KMSS 151753Z AUTO 06010KT 10SM CLR M18/M21 A3071 RMK AO2 SNB01E10 SLP412
                 P0000 60000 T11781211 11172 21222 58032 =
2018-01-15 12:15 METAR KMSS 151715Z AUTO 07011KT 9SM CLR M18/M21 A3072 RMK AO2 SNB01E10 P0000
                 T11781211 =
2018-01-15 12:00 METAR KMSS 151700Z AUTO 06015KT 1 3/4SM HZ CLR M18/M22 A3073 RMK AO2 T11781217 =
2018-01-15 11:53 METAR KMSS 151653Z AUTO 05016KT 10SM CLR M18/M21 A3073 RMK AO2 SLP421 T11781211
                 =
2018-01-15 10:53 METAR KMSS 151553Z AUTO 05013KT 10SM CLR M18/M22 A3077 RMK AO2 SLP435 T11831217
                 =
2018-01-15 09:53 METAR KMSS 151453Z AUTO 06012KT 10SM CLR M19/M23 A3080 RMK AO2 UPB11E19 SLP445
                 P0000 60000 T11941228 58001 =
2018-01-15 09:33 METAR KMSS 151433Z AUTO 06011KT 8SM SCT006 M19/M23 A3080 RMK AO2 UPB11E19 P0000
                 T11941228 =
2018-01-15 09:17 METAR KMSS 151417Z AUTO 07008KT 4SM UP BKN006 M20/M23 A3081 RMK AO2 UPB11 P0000
                 T12001228 =
2018-01-15 09:08 METAR KMSS 151408Z AUTO 07010KT 5SM HZ SCT006 M20/M23 A3081 RMK AO2 T12001228 =
2018-01-15 08:53 METAR KMSS 151353Z AUTO 06010KT 7SM CLR M21/M23 A3081 RMK AO2 SLP447 T12061233 =
2018-01-15 07:53 METAR KMSS 151253Z AUTO 05008KT 7SM CLR M22/M24 A3081 RMK AO2 SLP449 T12171239 =
2018-01-15 06:53 METAR KMSS 151153Z AUTO 04008KT 8SM CLR M22/M24 A3080 RMK AO2 SLP446 T12221244
                 11222 21289 58001 =

Support USWX by starting your Amazon purchase here.